Airfield :
LOGIN :

Register | Disclaimer

   EN    FR    IT 

 










Legend :    VFR   Marginal VFR   IFR   Intensive IFR   Very Intensive IFR
Visi :
Ceiling :
>= 8 km
>= 3000ft
5 to 8 km
1000 to 3000 ft
1500m to 5 km
500 to 1000 ft
800 to 1500m
200 to 500 ft
< 800m
< 200 ft
Symbols :   Thunderstorms  Fog  Heavy snow  Heavy precipitations  Wind > 20 kt
SIGMETs :     Misc.  Thunderstorms  Icing  Turbulence  Mountain Waves  Volcanic Ashes







- Airport Elevation : 87 ft
- IATA code : FSC
- Download approach charts


LFKF - Figari

CURRENT METAR :
  • 220600Z AUTO 20012KT 180V240 9999 SCT028 BKN038 BKN047 13/10 Q1013 BECMG 27015G25KT

EXPIRED METARs :
  • 220530Z AUTO 21011KT 190V270 9999 BKN025 BKN032 14/10 Q1013 BECMG 27015G25KT
  • 220500Z AUTO 25013KT 9999 FEW023 BKN240 13/10 Q1013 BECMG 27015G25KT
  • 220430Z AUTO 26012KT 9999 FEW029 BKN240 13/09 Q1013 BECMG 27015G25KT
  • 220400Z AUTO 24010KT 9999 BKN027 13/10 Q1013 BECMG 27015G25KT
  • 220330Z AUTO 22009KT 9999 FEW028 SCT036 13/09 Q1013 BECMG 27015G25KT

TAF TAF LFKF
Valid from the 22 at 03:00 until the 23 at 03:00 UTC


220200Z 2203/2303 27015G25KT 9999 FEW040 BKN230
PROB40
TEMPO 2219/2224 28020G40KT BKN014
BECMG 2300/2303 30010KT
No reported NOTAMs for that airfield.
3 SIGMETs reported for the Marseille FIR (LFMM) :
 
Severe turbulence
LFMM SIGMET 3 VALID 220600/220700 LFPW
LFMM MARSEILLE FIR/UIR SEV TURB FCST WI N4545 E00700 - N4400 E00700 - N4400 E00715 - N4215 E00630 - N4315 E00500 - N4530 E00600 - N4545 E00700 SFC/FL120 STNR NC=
Severe turbulence
LFMM SIGMET 2 VALID 220400/220700 LFPW
LFMM MARSEILLE FIR/UIR SEV TURB FCST WI N4215 E00300 - N4215 E00230 - N4545 E00300 - N4600 E00400 - N4500 E00430 - N4215 E00300 SFC/FL080 STNR NC=
Severe turbulence
LFMM SIGMET 1 VALID 220300/220700 LFPW
LFMM MARSEILLE FIR/UIR SEV TURB FCST WI N4615 E00700 - N4400 E00700 - N4400 E00715 - N4315 E00645 - N4145 E00715 - N4145 E00600 - N4430 E00515 - N4615 E00700 SFC/FL120 STNR NC=



MET'MAP, your aeronautical weather chart ! - Copyright ORBIFLY December 2007 - Disclaimer

ORBIFLY MET'MAP TEAM :

Programming & Development : Alexandra Zaïnal
Concept & Development : Baudouin d'Aumeries
Co-Development & Prog : Marc-Olivier Méhu
Technical & hardware support : Manuel Goepfert

Contact : metmap@orbifly.com




SOURCES & CREDITS :

   NOAA